Alum Bank, Pennsylvania
Current Conditions -  °F | °C
As of 4:54 AM on Saturday 20 Dec 2014 (Local Time) from KJST Reporting Station
Overcast Overcast  
Wind Chill: -10°   Ceiling: 1300
Heat Index: -7°   Visibility: 10mi
Dew Point: -9°   Wind: 5mph
Humidity: 81%   Direction: 340°NNW
Pressure: 30.15"   Gusts: NA
Location:  40.18°N, 78.61°W
Report Text: KJST 200954Z AUTO 34004KT 10SM OVC013 M07/M09 A3015 RMK AO2 SLP245 T10671094
Loading
Personal Weather Stations






























Interactive Weather Map New forecast layout! Learn more

10-Day Weather Forecast

Advertisements
Track Severe Weather on mobile